Time;durP1;ratioP1;P1;durP2;ratioP2;P2;SDS_P1;SDS_P2;PMS_P1;PMS_P2;Temp;Humidity;BMP_temperature;BMP_pressure;BME280_temperature;BME280_humidity;BME280_pressure;Samples;Min_cycle;Max_cycle;Signal;HPM_P1;HPM_P2
2022/12/25 00:01:42;;;;;;;5.15;2.72;;;;;;;;;;5031532;28;20088;-74
2022/12/25 00:04:10;;;;;;;6.18;2.40;;;13.60;69.80;;;;;;5031516;28;20136;-74
2022/12/25 00:06:37;;;;;;;6.70;2.40;;;;;;;;;;5031710;28;20049;-74
2022/12/25 00:09:04;;;;;;;3.97;2.40;;;;;;;;;;5031119;28;20045;-74
2022/12/25 00:11:31;;;;;;;5.05;2.50;;;;;;;;;;5031711;28;20067;-74
2022/12/25 00:13:58;;;;;;;4.20;2.20;;;;;;;;;;5031353;28;20059;-74
2022/12/25 00:16:26;;;;;;;5.63;2.67;;;;;;;;;;5031496;28;20059;-74
2022/12/25 00:18:53;;;;;;;4.40;2.38;;;;;;;;;;5031468;28;20132;-74
2022/12/25 00:21:21;;;;;;;4.60;2.05;;;13.60;69.90;;;;;;5031623;28;20076;-74
2022/12/25 00:23:48;;;;;;;5.28;2.33;;;;;;;;;;5026466;28;20062;-75
2022/12/25 00:26:16;;;;;;;3.90;2.30;;;;;;;;;;5024224;28;20063;-74
2022/12/25 00:28:43;;;;;;;4.32;2.50;;;;;;;;;;5031238;28;20049;-74
2022/12/25 00:31:11;;;;;;;3.17;2.13;;;;;;;;;;5031543;28;20049;-74
2022/12/25 00:33:38;;;;;;;5.53;2.53;;;;;;;;;;5030791;28;20132;-74
2022/12/25 00:36:06;;;;;;;6.00;2.35;;;;;;;;;;5031096;28;20059;-75
2022/12/25 00:38:34;;;;;;;4.38;2.42;;;;;;;;;;5030255;28;20059;-74
2022/12/25 00:41:04;;;;;;;5.40;2.50;;;;;;;;;;5030419;28;20049;-74
2022/12/25 00:43:31;;;;;;;4.45;2.28;;;;;;;;;;5030799;28;20076;-74
2022/12/25 00:45:59;;;;;;;5.40;2.45;;;;;;;;;;5031255;28;20064;-74
2022/12/25 00:48:26;;;;;;;3.83;2.30;;;;;;;;;;5030976;28;20140;-74
2022/12/25 00:50:54;;;;;;;3.38;2.45;;;;;;;;;;5031420;28;20140;-75
2022/12/25 00:53:21;;;;;;;4.47;2.47;;;;;;;;;;5030646;28;20132;-74
2022/12/25 00:55:52;;;;;;;4.72;2.80;;;;;;;;;;5018184;28;20058;-74
2022/12/25 00:58:19;;;;;;;3.80;2.40;;;;;;;;;;5019109;28;20053;-74
2022/12/25 01:00:47;;;;;;;7.15;2.75;;;;;;;;;;5031040;28;20505;-74
2022/12/25 01:03:14;;;;;;;3.00;2.15;;;;;;;;;;5030861;28;20513;-74
2022/12/25 01:05:41;;;;;;;4.57;2.30;;;;;;;;;;5030943;28;20479;-73
2022/12/25 01:08:08;;;;;;;5.63;2.58;;;;;;;;;;5030953;28;20061;-74
2022/12/25 01:10:34;;;;;;;4.43;2.40;;;;;;;;;;5030528;28;20050;-74
2022/12/25 01:13:03;;;;;;;5.00;2.40;;;;;;;;;;5023421;28;20688;-74
2022/12/25 01:15:30;;;;;;;3.90;2.53;;;;;;;;;;5017194;28;20513;-75
2022/12/25 01:17:57;;;;;;;4.38;2.67;;;;;;;;;;5013378;28;20060;-74
2022/12/25 01:20:24;;;;;;;4.18;2.42;;;;;;;;;;5011984;28;20049;-74
2022/12/25 01:22:51;;;;;;;5.22;2.42;;;;;;;;;;5010332;28;20137;-73
2022/12/25 01:25:18;;;;;;;3.13;2.38;;;;;;;;;;5011105;28;20136;-74
2022/12/25 01:27:45;;;;;;;6.32;2.60;;;;;;;;;;5024559;28;20059;-73
2022/12/25 01:30:14;;;;;;;4.25;2.40;;;;;;;;;;5030389;28;20059;-74
2022/12/25 01:32:41;;;;;;;5.18;2.28;;;;;;;;;;5030171;28;20113;-74
2022/12/25 01:35:09;;;;;;;3.75;2.55;;;;;;;;;;5030808;28;20057;-73
2022/12/25 01:37:36;;;;;;;5.30;2.47;;;;;;;;;;5029991;28;20144;-73
2022/12/25 01:40:03;;;;;;;5.35;2.50;;;;;;;;;;5030320;28;20060;-74
2022/12/25 01:42:30;;;;;;;4.20;2.60;;;;;;;;;;5029857;28;20136;-73
2022/12/25 01:45:21;;;;;;;3.72;2.33;;;;;;;;;;5029959;28;20059;-74
2022/12/25 01:47:50;;;;;;;4.45;2.55;;;;;;;;;;5030587;28;20058;-73
2022/12/25 01:50:17;;;;;;;4.38;2.45;;;;;;;;;;5030206;28;20140;-73
2022/12/25 01:52:44;;;;;;;3.22;2.15;;;;;;;;;;5030895;28;20053;-74
2022/12/25 01:55:11;;;;;;;3.60;2.65;;;;;;;;;;5033541;28;20590;-73
2022/12/25 01:57:38;;;;;;;4.47;2.78;;;;;;;;;;5014518;28;20461;-73
2022/12/25 02:00:07;;;;;;;4.85;2.22;;;13.00;68.40;;;;;;5030668;28;20060;-74
2022/12/25 02:02:34;;;;;;;4.22;2.53;;;;;;;;;;5034131;28;20053;-73
2022/12/25 02:05:03;;;;;;;5.40;2.70;;;;;;;;;;5034297;28;20053;-73
2022/12/25 02:07:30;;;;;;;4.80;2.33;;;;;;;;;;5034164;28;20076;-73
2022/12/25 02:09:57;;;;;;;4.18;2.47;;;;;;;;;;5033853;28;20119;-74
2022/12/25 02:12:25;;;;;;;5.53;2.28;;;;;;;;;;5034067;28;20414;-73
2022/12/25 02:14:52;;;;;;;3.72;2.45;;;;;;;;;;5034097;28;20136;-74
2022/12/25 02:17:20;;;;;;;4.45;2.53;;;;;;;;;;5033700;28;20053;-73
2022/12/25 02:19:52;;;;;;;4.15;2.20;;;;;;;;;;5034007;28;20041;-73
2022/12/25 02:22:23;;;;;;;4.72;2.33;;;;;;;;;;5033620;28;20053;-73
2022/12/25 02:24:53;;;;;;;4.82;2.60;;;;;;;;;;5033239;28;20160;-74
2022/12/25 02:27:23;;;;;;;3.63;2.55;;;;;;;;;;5033717;28;20747;-73
2022/12/25 02:29:53;;;;;;;4.82;2.60;;;13.00;70.10;;;;;;5033738;28;20053;-73
2022/12/25 02:32:21;;;;;;;3.28;2.13;;;;;;;;;;5033285;28;20060;-74
2022/12/25 02:34:50;;;;;;;5.05;2.58;;;13.00;69.30;;;;;;5033735;28;20049;-74
2022/12/25 02:37:19;;;;;;;4.00;2.50;;;13.00;70.20;;;;;;5032978;28;20405;-74
2022/12/25 02:39:58;;;;;;;5.78;2.75;;;12.90;70.10;;;;;;5033385;28;20053;-74
2022/12/25 03:07:35;;;;;;;3.22;2.22;;;;;;;;;;5013270;28;20049;-74
2022/12/25 03:12:50;;;;;;;3.58;2.33;;;12.90;70.20;;;;;;5032360;28;20088;-74
2022/12/25 03:18:04;;;;;;;4.82;2.40;;;12.90;70.30;;;;;;5032409;28;20053;-73
2022/12/25 03:28:46;;;;;;;3.97;2.47;;;;;;;;;;5032425;28;20045;-73
2022/12/25 03:31:15;;;;;;;5.50;2.88;;;12.80;70.30;;;;;;5032229;28;20060;-73
2022/12/25 03:36:53;;;;;;;4.10;2.40;;;;;;;;;;5031675;28;20096;-74
2022/12/25 04:37:31;;;;;;;5.03;2.30;;;;;;;;;;5025133;28;20045;-73
2022/12/25 04:39:58;;;;;;;3.95;2.30;;;;;;;;;;5031443;28;20144;-75
2022/12/25 04:42:26;;;;;;;3.80;2.40;;;;;;;;;;5031294;28;20053;-73
2022/12/25 04:44:53;;;;;;;4.55;2.20;;;;;;;;;;5031365;28;20409;-73
2022/12/25 04:47:20;;;;;;;2.75;2.00;;;;;;;;;;5031118;28;20513;-73
2022/12/25 04:49:47;;;;;;;3.22;2.08;;;;;;;;;;5031303;28;20487;-73
2022/12/25 04:52:14;;;;;;;3.85;2.45;;;;;;;;;;5022994;28;20140;-73
2022/12/25 04:54:42;;;;;;;3.10;2.33;;;;;;;;;;5011617;28;20141;-73
2022/12/25 04:57:09;;;;;;;2.55;1.95;;;;;;;;;;5011274;28;20064;-74
2022/12/25 04:59:37;;;;;;;4.43;2.42;;;;;;;;;;5023314;28;20049;-74
2022/12/25 05:02:04;;;;;;;3.92;2.03;;;;;;;;;;5031857;28;20132;-74
2022/12/25 05:04:31;;;;;;;3.35;2.22;;;;;;;;;;5031062;28;20149;-73
2022/12/25 05:06:58;;;;;;;4.03;2.35;;;;;;;;;;5030554;28;20065;-73
2022/12/25 05:09:25;;;;;;;5.30;2.30;;;;;;;;;;5030532;28;20453;-73
2022/12/25 05:11:52;;;;;;;5.53;2.50;;;;;;;;;;5030820;28;20419;-73
2022/12/25 05:14:19;;;;;;;3.50;2.20;;;;;;;;;;5030965;28;20136;-74
2022/12/25 05:16:48;;;;;;;4.03;2.17;;;;;;;;;;5031050;28;20057;-73
2022/12/25 05:19:15;;;;;;;3.28;2.00;;;;;;;;;;5031086;28;20086;-74
2022/12/25 05:21:42;;;;;;;3.90;2.33;;;;;;;;;;5019724;28;20050;-73
2022/12/25 05:24:09;;;;;;;3.42;2.40;;;;;;;;;;5011144;28;20061;-73
2022/12/25 05:26:36;;;;;;;3.67;2.30;;;;;;;;;;5011386;28;20137;-73
2022/12/25 05:29:03;;;;;;;3.72;2.28;;;;;;;;;;5014066;28;20060;-74
2022/12/25 05:31:30;;;;;;;3.78;2.13;;;;;;;;;;5014764;28;20054;-73
2022/12/25 05:33:59;;;;;;;4.63;2.20;;;;;;;;;;5014724;28;20144;-74
2022/12/25 05:36:26;;;;;;;3.58;2.42;;;;;;;;;;5017050;28;20064;-73
2022/12/25 05:38:53;;;;;;;4.93;2.60;;;;;;;;;;5015134;28;20066;-73
2022/12/25 05:41:20;;;;;;;3.53;2.40;;;;;;;;;;5015109;28;20132;-74
2022/12/25 05:43:47;;;;;;;2.95;2.03;;;;;;;;;;5015919;28;20046;-73
2022/12/25 05:46:14;;;;;;;3.30;2.13;;;;;;;;;;5014916;28;20060;-74
2022/12/25 05:48:41;;;;;;;3.67;2.10;;;;;;;;;;5014933;28;20054;-73
2022/12/25 05:51:10;;;;;;;4.88;2.20;;;;;;;;;;5028500;28;20053;-74
2022/12/25 05:53:37;;;;;;;4.78;2.33;;;;;;;;;;5034379;28;20059;-73
2022/12/25 05:56:04;;;;;;;4.70;2.35;;;;;;;;;;5035654;28;20046;-74
2022/12/25 05:58:31;;;;;;;3.72;1.98;;;;;;;;;;5034155;28;20132;-73
2022/12/25 06:00:58;;;;;;;4.32;2.45;;;;;;;;;;5034408;28;20041;-74
2022/12/25 06:03:25;;;;;;;3.50;2.15;;;;;;;;;;5034152;28;20059;-73
2022/12/25 06:05:52;;;;;;;3.50;2.20;;;;;;;;;;5034349;28;20140;-73
2022/12/25 06:08:21;;;;;;;5.18;2.20;;;;;;;;;;5034432;28;20057;-73
2022/12/25 06:10:48;;;;;;;4.88;2.67;;;;;;;;;;5034024;28;20414;-73
2022/12/25 06:13:15;;;;;;;3.45;2.10;;;;;;;;;;5033953;28;20161;-73
2022/12/25 06:15:42;;;;;;;3.60;1.92;;;;;;;;;;5034255;28;20087;-73
2022/12/25 06:18:09;;;;;;;3.08;2.03;;;;;;;;;;5034041;28;20128;-74
2022/12/25 06:20:36;;;;;;;3.08;2.10;;;;;;;;;;5016365;28;20049;-73
2022/12/25 06:23:03;;;;;;;3.58;2.30;;;;;;;;;;5013959;28;20443;-73
2022/12/25 06:25:32;;;;;;;4.32;2.40;;;;;;;;;;5019362;28;20542;-73
2022/12/25 06:27:59;;;;;;;3.38;2.00;;;;;;;;;;5029118;28;20156;-74
2022/12/25 06:30:26;;;;;;;3.30;2.05;;;;;;;;;;5033776;28;20075;-73
2022/12/25 06:32:53;;;;;;;4.10;2.33;;;;;;;;;;5033286;28;20084;-74
2022/12/25 06:35:20;;;;;;;4.40;2.35;;;;;;;;;;5033318;28;20080;-73
2022/12/25 06:37:47;;;;;;;3.60;2.33;;;;;;;;;;5033042;28;20057;-73
2022/12/25 06:40:14;;;;;;;3.30;2.28;;;;;;;;;;5033730;28;20054;-73
2022/12/25 06:42:43;;;;;;;2.83;2.15;;;;;;;;;;5033532;28;20061;-74
2022/12/25 06:45:10;;;;;;;4.53;2.70;;;;;;;;;;5033154;28;20065;-73
2022/12/25 06:47:37;;;;;;;4.78;2.10;;;;;;;;;;5033121;28;20053;-73
2022/12/25 06:50:05;;;;;;;4.07;2.20;;;;;;;;;;5033334;28;20132;-74
2022/12/25 06:52:32;;;;;;;4.05;2.47;;;;;;;;;;5033156;28;20053;-74
2022/12/25 06:54:59;;;;;;;4.32;2.42;;;;;;;;;;5033385;28;20132;-74
2022/12/25 06:57:26;;;;;;;3.45;2.20;;;;;;;;;;5032998;28;20060;-74
2022/12/25 06:59:55;;;;;;;3.22;2.10;;;;;;;;;;5033035;28;20055;-73
2022/12/25 07:02:22;;;;;;;2.90;2.10;;;;;;;;;;5026611;28;20055;-73
2022/12/25 07:04:49;;;;;;;3.13;2.08;;;;;;;;;;5013521;28;20056;-73
2022/12/25 07:07:16;;;;;;;3.38;2.30;;;;;;;;;;5008357;28;20051;-73
2022/12/25 07:09:43;;;;;;;3.55;2.30;;;;;;;;;;5020319;28;20050;-73
2022/12/25 07:12:15;;;;;;;3.70;2.20;;;12.80;69.00;;;;;;5018397;28;20133;-73
2022/12/25 07:14:42;;;;;;;3.13;2.10;;;;;;;;;;5026558;28;20056;-73
2022/12/25 07:17:10;;;;;;;5.72;2.22;;;;;;;;;;5025204;28;20050;-73
2022/12/25 07:19:38;;;;;;;3.63;2.30;;;;;;;;;;5006889;28;20108;-73
2022/12/25 07:22:05;;;;;;;4.15;2.40;;;;;;;;;;5012487;28;20188;-73
2022/12/25 07:24:32;;;;;;;4.55;2.17;;;;;;;;;;5025124;28;20140;-73
2022/12/25 07:26:59;;;;;;;4.07;2.25;;;;;;;;;;5027434;28;20469;-73
2022/12/25 07:29:26;;;;;;;4.50;2.25;;;;;;;;;;5047327;28;20051;-73
2022/12/25 07:31:53;;;;;;;3.50;2.05;;;;;;;;;;5027075;28;20128;-72
2022/12/25 07:34:22;;;;;;;4.57;2.20;;;;;;;;;;5023865;28;20067;-73
2022/12/25 07:36:49;;;;;;;3.60;2.10;;;;;;;;;;5019191;28;20491;-73
2022/12/25 07:39:16;;;;;;;3.40;2.00;;;;;;;;;;5016164;28;20418;-73
2022/12/25 07:41:44;;;;;;;2.88;1.90;;;;;;;;;;5020255;28;20076;-74
2022/12/25 07:44:11;;;;;;;3.47;2.17;;;;;;;;;;5022252;28;20128;-73
2022/12/25 07:46:38;;;;;;;4.20;2.40;;;;;;;;;;5020334;28;20057;-73
2022/12/25 07:49:05;;;;;;;4.15;2.00;;;;;;;;;;5023130;28;20092;-73
2022/12/25 07:51:33;;;;;;;2.90;2.10;;;;;;;;;;5021607;28;20068;-73
2022/12/25 07:54:00;;;;;;;3.88;2.22;;;;;;;;;;5022111;28;20064;-73
2022/12/25 07:56:27;;;;;;;3.00;1.88;;;;;;;;;;5023442;28;20130;-74
2022/12/25 07:58:54;;;;;;;3.97;2.42;;;;;;;;;;5023424;28;20116;-72
2022/12/25 08:01:22;;;;;;;3.30;2.03;;;;;;;;;;5022845;28;20055;-74
2022/12/25 08:03:49;;;;;;;3.72;2.03;;;;;;;;;;5018858;28;20056;-72
2022/12/25 08:06:16;;;;;;;2.72;1.98;;;;;;;;;;5028092;28;20053;-73
2022/12/25 08:08:45;;;;;;;2.63;1.88;;;;;;;;;;5012082;28;20061;-73
2022/12/25 08:11:12;;;;;;;3.15;2.10;;;;;;;;;;5013253;28;20050;-74
2022/12/25 08:13:39;;;;;;;3.63;1.92;;;;;;;;;;5011778;28;20050;-72
2022/12/25 08:16:07;;;;;;;4.78;2.00;;;;;;;;;;5012413;28;20053;-72
2022/12/25 08:18:35;;;;;;;2.80;1.70;;;;;;;;;;5012213;28;20057;-73
2022/12/25 08:21:02;;;;;;;3.47;2.13;;;;;;;;;;5025977;28;20079;-72
2022/12/25 08:23:29;;;;;;;3.35;2.10;;;;;;;;;;5016939;28;20050;-72
2022/12/25 08:26:00;;;;;;;4.15;2.10;;;;;;;;;;5022175;28;20054;-73
2022/12/25 08:28:27;;;;;;;2.78;2.10;;;;;;;;;;5021278;28;20376;-72
2022/12/25 08:30:54;;;;;;;3.88;2.17;;;;;;;;;;5031182;28;20053;-73
2022/12/25 08:33:21;;;;;;;2.30;1.80;;;;;;;;;;5032746;28;20056;-73
2022/12/25 08:35:48;;;;;;;3.13;1.80;;;;;;;;;;5030794;28;20053;-73
2022/12/25 08:38:15;;;;;;;2.97;1.77;;;;;;;;;;5031332;28;20132;-72
2022/12/25 08:40:42;;;;;;;3.92;1.80;;;;;;;;;;5030095;28;20140;-74
2022/12/25 08:43:11;;;;;;;5.65;1.95;;;;;;;;;;5030734;28;20057;-73
2022/12/25 08:45:38;;;;;;;4.80;1.90;;;;;;;;;;5031155;28;20063;-73
2022/12/25 08:48:05;;;;;;;3.78;2.00;;;;;;;;;;5018708;28;20064;-73
2022/12/25 08:50:32;;;;;;;3.88;2.10;;;;;;;;;;5011389;28;20501;-72
2022/12/25 08:52:59;;;;;;;3.88;2.08;;;;;;;;;;5011207;28;20068;-73
2022/12/25 08:55:26;;;;;;;1.90;1.60;;;;;;;;;;5016205;28;20045;-74
2022/12/25 08:57:53;;;;;;;3.00;2.03;;;;;;;;;;5030892;28;20057;-74
2022/12/25 09:00:22;;;;;;;6.55;2.38;;;;;;;;;;5030994;28;20049;-72
2022/12/25 09:02:49;;;;;;;6.38;2.55;;;;;;;;;;5029799;28;20045;-72
2022/12/25 09:05:16;;;;;;;3.55;2.20;;;;;;;;;;5031220;28;20057;-73
2022/12/25 09:07:43;;;;;;;5.05;2.20;;;;;;;;;;5031916;28;20679;-72
2022/12/25 09:10:11;;;;;;;5.40;2.30;;;;;;;;;;5030254;28;20152;-72
2022/12/25 09:12:38;;;;;;;6.10;2.35;;;;;;;;;;5011137;28;20547;-74
2022/12/25 09:15:06;;;;;;;4.80;2.15;;;13.60;70.00;;;;;;5011028;28;20060;-72
2022/12/25 09:17:35;;;;;;;5.05;2.20;;;;;;;;;;5016546;28;20137;-73
2022/12/25 09:20:02;;;;;;;4.45;2.30;;;;;;;;;;5005766;28;20068;-74
2022/12/25 09:22:29;;;;;;;6.75;2.70;;;;;;;;;;5022210;28;20042;-72
2022/12/25 09:24:56;;;;;;;7.47;2.47;;;;;;;;;;5017141;28;20136;-73
2022/12/25 09:27:23;;;;;;;4.90;2.10;;;;;;;;;;5021394;28;20053;-72
2022/12/25 09:29:50;;;;;;;4.93;2.03;;;;;;;;;;5030375;28;20060;-74
2022/12/25 09:32:17;;;;;;;3.22;2.30;;;;;;;;;;5030303;28;20045;-72
2022/12/25 09:34:46;;;;;;;4.43;2.03;;;;;;;;;;5020396;28;20064;-73
2022/12/25 09:37:13;;;;;;;4.90;2.65;;;;;;;;;;5022174;28;20060;-74
2022/12/25 09:39:40;;;;;;;8.65;2.60;;;;;;;;;;5030283;28;20049;-73
2022/12/25 09:42:08;;;;;;;11.45;2.83;;;;;;;;;;5030601;28;20057;-74
2022/12/25 09:44:36;;;;;;;7.30;2.83;;;14.00;69.80;;;;;;5030667;28;20053;-73
2022/12/25 09:47:05;;;;;;;10.27;2.55;;;;;;;;;;5019723;28;20062;-72
2022/12/25 09:49:33;;;;;;;11.38;2.88;;;;;;;;;;5010678;28;20050;-72
2022/12/25 09:52:03;;;;;;;12.30;3.20;;;;;;;;;;5018219;28;20045;-71
2022/12/25 09:54:33;;;;;;;7.22;2.80;;;;;;;;;;5030483;28;20051;-72
2022/12/25 09:57:00;;;;;;;8.32;3.10;;;;;;;;;;5030578;28;20676;-71
2022/12/25 09:59:27;;;;;;;9.93;3.08;;;;;;;;;;5030698;28;20061;-72
2022/12/25 10:02:01;;;;;;;11.93;2.80;;;14.20;69.80;;;;;;5030175;28;20058;-72
2022/12/25 10:04:35;;;;;;;7.75;2.67;;;14.20;69.00;;;;;;5030554;28;20061;-72
2022/12/25 10:07:07;;;;;;;6.80;2.63;;;14.20;69.70;;;;;;5030290;28;20136;-72
2022/12/25 10:09:41;;;;;;;5.72;2.70;;;;;;;;;;5030816;28;20064;-72
2022/12/25 10:12:13;;;;;;;9.25;2.92;;;;;;;;;;5029979;28;20059;-72
2022/12/25 10:14:43;;;;;;;6.90;3.00;;;14.30;69.70;;;;;;5032431;28;20056;-72
2022/12/25 10:17:17;;;;;;;8.98;3.20;;;;;;;;;;5033954;28;20128;-72
2022/12/25 10:19:45;;;;;;;8.57;2.92;;;;;;;;;;5034346;28;20405;-72
2022/12/25 10:22:15;;;;;;;6.38;2.65;;;14.30;69.60;;;;;;5033756;28;20053;-72
2022/12/25 10:24:43;;;;;;;8.07;2.78;;;;;;;;;;5033698;28;20056;-72
2022/12/25 10:27:14;;;;;;;7.43;2.90;;;14.20;69.60;;;;;;5033997;28;20057;-72
2022/12/25 10:29:41;;;;;;;8.15;2.88;;;;;;;;;;5033998;28;20060;-72
2022/12/25 10:32:09;;;;;;;8.07;2.60;;;14.20;69.50;;;;;;5033712;28;20046;-74
2022/12/25 10:34:36;;;;;;;7.10;2.88;;;;;;;;;;5033667;28;20139;-72
2022/12/25 10:37:03;;;;;;;9.50;3.40;;;;;;;;;;5033438;28;20064;-72
2022/12/25 10:39:31;;;;;;;5.43;2.70;;;14.20;69.80;;;;;;5033625;28;20060;-72
2022/12/25 10:42:05;;;;;;;6.05;2.92;;;;;;;;;;5033500;28;20045;-72
2022/12/25 10:44:33;;;;;;;6.15;2.55;;;;;;;;;;5033662;28;20069;-72
2022/12/25 10:47:00;;;;;;;8.70;2.53;;;;;;;;;;5033712;28;20061;-72
2022/12/25 10:49:29;;;;;;;10.90;3.20;;;14.30;69.90;;;;;;5033501;28;20144;-72
2022/12/25 10:51:56;;;;;;;8.23;2.70;;;;;;;;;;5033503;28;20050;-71
2022/12/25 10:54:23;;;;;;;6.00;2.58;;;;;;;;;;5033256;28;20059;-72
2022/12/25 10:56:55;;;;;;;9.07;2.80;;;14.20;70.00;;;;;;5033468;28;20063;-72
2022/12/25 10:59:23;;;;;;;8.18;2.70;;;;;;;;;;5033371;28;20064;-73
2022/12/25 11:01:50;;;;;;;6.38;2.45;;;;;;;;;;5033329;28;20053;-72
2022/12/25 11:04:20;;;;;;;7.20;3.00;;;;;;;;;;5033006;28;20068;-73
2022/12/25 11:06:56;;;;;;;6.78;2.55;;;14.20;70.00;;;;;;5033329;28;20057;-72
2022/12/25 11:09:23;;;;;;;5.03;2.58;;;;;;;;;;5034136;28;20053;-73
2022/12/25 11:11:50;;;;;;;6.28;2.90;;;;;;;;;;5033146;28;20054;-72
2022/12/25 11:14:19;;;;;;;4.32;2.50;;;;;;;;;;5032718;28;20054;-72
2022/12/25 11:16:46;;;;;;;8.40;2.80;;;;;;;;;;5033047;28;20487;-72
2022/12/25 11:19:23;;;;;;;5.88;2.60;;;;;;;;;;5032985;28;20056;-73
2022/12/25 11:21:51;;;;;;;4.43;2.20;;;;;;;;;;5032747;28;20045;-72
2022/12/25 11:24:18;;;;;;;5.60;2.22;;;;;;;;;;5032766;28;20061;-73
2022/12/25 11:26:47;;;;;;;5.45;2.28;;;14.30;69.70;;;;;;5031622;28;20053;-73
2022/12/25 11:29:14;;;;;;;5.43;2.13;;;;;;;;;;5032623;28;20064;-72
2022/12/25 11:31:42;;;;;;;4.28;2.40;;;14.40;70.00;;;;;;5032740;28;20057;-72
2022/12/25 11:34:13;;;;;;;5.00;2.20;;;14.30;69.70;;;;;;5032629;28;20059;-72
2022/12/25 11:36:43;;;;;;;4.13;2.33;;;14.40;69.70;;;;;;5032060;28;20056;-72
2022/12/25 11:39:12;;;;;;;6.35;2.65;;;14.40;67.80;;;;;;5032852;28;20084;-72
2022/12/25 11:41:40;;;;;;;7.18;2.40;;;;;;;;;;5032539;28;20133;-72
2022/12/25 11:44:08;;;;;;;3.85;2.30;;;;;;;;;;5032213;28;20061;-72
2022/12/25 11:46:36;;;;;;;5.05;2.47;;;;;;;;;;5032391;28;20084;-72
2022/12/25 11:49:07;;;;;;;4.97;2.30;;;;;;;;;;5032219;28;20049;-72
2022/12/25 11:51:34;;;;;;;4.78;2.33;;;;;;;;;;5032371;28;20104;-72
2022/12/25 11:54:01;;;;;;;6.13;2.13;;;;;;;;;;5032078;28;20060;-72
2022/12/25 11:56:29;;;;;;;4.63;2.17;;;;;;;;;;5032163;28;20051;-73
2022/12/25 11:58:57;;;;;;;6.72;2.35;;;14.40;67.80;;;;;;5032284;28;20091;-72
2022/12/25 12:01:27;;;;;;;4.15;2.08;;;;;;;;;;5032065;28;20053;-71
2022/12/25 12:03:54;;;;;;;4.00;2.08;;;;;;;;;;5033402;28;20131;-72
2022/12/25 12:06:24;;;;;;;6.13;2.28;;;;;;;;;;5031887;28;20057;-72
2022/12/25 12:08:53;;;;;;;4.20;2.20;;;14.40;69.60;;;;;;5031674;28;20053;-72
2022/12/25 12:11:20;;;;;;;4.85;2.20;;;;;;;;;;5032076;28;20065;-72
2022/12/25 12:13:57;;;;;;;4.65;2.00;;;14.50;69.80;;;;;;5031407;28;20490;-73
2022/12/25 12:16:24;;;;;;;4.45;1.95;;;;;;;;;;5031769;28;20049;-72
2022/12/25 12:18:51;;;;;;;3.55;2.10;;;;;;;;;;5031440;28;20055;-72
2022/12/25 12:21:23;;;;;;;2.85;2.00;;;;;;;;;;5031603;28;20065;-72
2022/12/25 12:23:53;;;;;;;3.17;1.88;;;;;;;;;;5031751;28;20393;-72
2022/12/25 12:26:20;;;;;;;3.65;1.92;;;;;;;;;;5031785;28;20111;-72
2022/12/25 12:28:47;;;;;;;5.80;2.10;;;;;;;;;;5031659;28;20136;-72
2022/12/25 12:31:14;;;;;;;4.13;2.28;;;;;;;;;;5031626;28;20057;-72
2022/12/25 12:33:42;;;;;;;3.30;1.92;;;14.40;68.40;;;;;;5031092;28;20053;-72
2022/12/25 12:36:10;;;;;;;2.70;1.70;;;14.50;69.90;;;;;;5031137;28;20129;-72
2022/12/25 12:38:39;;;;;;;4.03;1.75;;;;;;;;;;5031214;28;20064;-72
2022/12/25 12:41:07;;;;;;;4.85;2.28;;;;;;;;;;5031547;28;20136;-72
2022/12/25 12:43:35;;;;;;;2.88;1.80;;;;;;;;;;5031190;28;20128;-72
2022/12/25 12:46:03;;;;;;;4.20;2.05;;;;;;;;;;5031465;28;20063;-72
2022/12/25 12:48:30;;;;;;;5.05;1.85;;;;;;;;;;5031260;28;20059;-72
2022/12/25 12:51:04;;;;;;;3.35;1.90;;;;;;;;;;5031435;28;20060;-72
2022/12/25 12:53:31;;;;;;;4.78;1.98;;;;;;;;;;5030739;28;20053;-72
2022/12/25 12:56:10;;;;;;;3.97;1.80;;;;;;;;;;5031421;28;20057;-72
2022/12/25 12:58:38;;;;;;;2.70;1.75;;;;;;;;;;5031272;28;20053;-72
2022/12/25 13:01:08;;;;;;;4.07;2.00;;;;;;;;;;5031176;28;20056;-72
2022/12/25 13:03:42;;;;;;;4.65;2.20;;;14.40;69.80;;;;;;5030823;28;20049;-72
2022/12/25 13:06:10;;;;;;;3.55;1.80;;;;;;;;;;5031089;28;20053;-72
2022/12/25 13:08:45;;;;;;;4.22;1.90;;;14.40;69.80;;;;;;5030648;28;20128;-72
2022/12/25 13:11:15;;;;;;;5.18;1.90;;;14.40;67.60;;;;;;5031129;28;20506;-72
2022/12/25 13:13:42;;;;;;;4.10;2.03;;;;;;;;;;5030645;28;20047;-72
2022/12/25 13:16:13;;;;;;;4.25;1.90;;;;;;;;;;5030793;28;20055;-72
2022/12/25 13:18:40;;;;;;;4.78;1.92;;;;;;;;;;5030695;28;20417;-72
2022/12/25 13:21:07;;;;;;;3.13;1.90;;;;;;;;;;5030868;28;20495;-72
2022/12/25 13:23:35;;;;;;;3.55;2.00;;;;;;;;;;5030953;28;20078;-72
2022/12/25 13:26:02;;;;;;;3.22;1.80;;;;;;;;;;5030753;28;20081;-72
2022/12/25 13:28:31;;;;;;;3.63;1.90;;;14.40;68.30;;;;;;5030618;28;20055;-72
2022/12/25 13:31:02;;;;;;;2.60;1.73;;;14.40;68.40;;;;;;5031061;28;20156;-72
2022/12/25 13:33:29;;;;;;;2.83;1.88;;;;;;;;;;5030563;28;20072;-72
2022/12/25 13:35:56;;;;;;;3.10;1.63;;;;;;;;;;5030291;28;20490;-72
2022/12/25 13:38:24;;;;;;;2.00;1.38;;;;;;;;;;5030941;28;20413;-72
2022/12/25 13:43:33;;;;;;;2.67;1.60;;;;;;;;;;5029337;28;20091;-72
2022/12/25 13:46:00;;;;;;;3.50;1.75;;;;;;;;;;5030644;28;20063;-72
2022/12/25 13:48:27;;;;;;;2.30;1.60;;;;;;;;;;5030920;28;20063;-73
2022/12/25 13:50:57;;;;;;;3.25;1.98;;;;;;;;;;5034524;28;20060;-72
2022/12/25 13:53:25;;;;;;;6.05;1.95;;;;;;;;;;5034413;28;20163;-72
2022/12/25 13:55:53;;;;;;;2.97;1.60;;;;;;;;;;5034189;28;20077;-73
2022/12/25 13:58:24;;;;;;;3.95;1.77;;;14.40;69.70;;;;;;5034148;28;20053;-72
2022/12/25 14:00:52;;;;;;;1.90;1.67;;;14.50;70.00;;;;;;5034674;28;20053;-72
2022/12/25 14:03:20;;;;;;;2.72;1.88;;;;;;;;;;5034332;28;20049;-72
2022/12/25 14:05:47;;;;;;;2.10;1.45;;;;;;;;;;5034508;28;20501;-72
2022/12/25 14:08:15;;;;;;;3.33;1.67;;;14.50;69.80;;;;;;5033218;28;20079;-73
2022/12/25 14:10:42;;;;;;;1.77;1.40;;;;;;;;;;5034432;28;20433;-72
2022/12/25 14:13:11;;;;;;;2.65;1.67;;;14.50;69.80;;;;;;5035046;28;20413;-72
2022/12/25 14:15:38;;;;;;;2.00;1.60;;;;;;;;;;5034159;28;20057;-72
2022/12/25 14:18:07;;;;;;;3.42;1.58;;;14.50;70.00;;;;;;5033941;28;20049;-71
2022/12/25 14:20:34;;;;;;;3.38;2.00;;;;;;;;;;5034145;28;20425;-72
2022/12/25 14:23:01;;;;;;;3.03;1.40;;;;;;;;;;5033604;28;20050;-72
2022/12/25 14:25:29;;;;;;;2.60;1.80;;;14.40;69.20;;;;;;5033819;28;20053;-72
2022/12/25 14:27:56;;;;;;;3.55;1.90;;;;;;;;;;5034011;28;20057;-72
2022/12/25 14:30:23;;;;;;;2.58;1.70;;;;;;;;;;5034019;28;20053;-72
2022/12/25 14:32:51;;;;;;;2.35;1.50;;;;;;;;;;5033290;28;20049;-72
2022/12/25 14:35:19;;;;;;;1.80;1.50;;;14.60;68.20;;;;;;5033787;28;20179;-72
2022/12/25 14:37:46;;;;;;;2.00;1.35;;;;;;;;;;5033151;28;20050;-72
2022/12/25 14:40:21;;;;;;;3.00;1.52;;;;;;;;;;5033940;28;20053;-73
2022/12/25 14:42:54;;;;;;;1.90;1.40;;;14.40;69.80;;;;;;5033486;28;20053;-72
2022/12/25 14:45:25;;;;;;;2.47;1.63;;;;;;;;;;5033453;28;20057;-72
2022/12/25 14:47:53;;;;;;;2.63;1.50;;;;;;;;;;5033369;28;20140;-72
2022/12/25 14:50:27;;;;;;;2.47;1.40;;;14.50;70.10;;;;;;5033669;28;20053;-72
2022/12/25 14:52:54;;;;;;;6.00;1.57;;;;;;;;;;5033404;28;20050;-72
2022/12/25 14:55:21;;;;;;;2.55;1.50;;;;;;;;;;5033494;28;20077;-72
2022/12/25 14:57:49;;;;;;;2.10;1.30;;;;;;;;;;5033490;28;20061;-72
2022/12/25 15:00:21;;;;;;;4.57;1.60;;;;;;;;;;5032274;28;20482;-72
2022/12/25 15:02:48;;;;;;;2.17;1.42;;;;;;;;;;5032963;28;20049;-73
2022/12/25 15:05:30;;;;;;;1.95;1.42;;;;;;;;;;5033416;28;20050;-73
2022/12/25 15:08:05;;;;;;;2.20;1.60;;;;;;;;;;5032964;28;20063;-72
2022/12/25 15:10:32;;;;;;;3.38;1.58;;;;;;;;;;5033444;28;20127;-72
2022/12/25 15:12:59;;;;;;;2.28;1.60;;;;;;;;;;5032910;28;20136;-72
2022/12/25 15:15:26;;;;;;;2.30;1.60;;;;;;;;;;5033927;28;20049;-72
2022/12/25 15:17:53;;;;;;;2.42;1.67;;;;;;;;;;5032938;28;20057;-72
2022/12/25 15:20:21;;;;;;;2.03;1.33;;;;;;;;;;5033065;28;20563;-72
2022/12/25 15:22:49;;;;;;;2.58;1.65;;;14.50;69.90;;;;;;5032859;28;20063;-72
2022/12/25 15:25:16;;;;;;;2.45;1.50;;;;;;;;;;5033124;28;20413;-72
2022/12/25 15:27:43;;;;;;;1.80;1.40;;;;;;;;;;5032447;28;20132;-72
2022/12/25 15:30:10;;;;;;;1.73;1.40;;;;;;;;;;5033018;28;20061;-72
2022/12/25 15:32:37;;;;;;;1.35;1.17;;;;;;;;;;5032684;28;20052;-72
2022/12/25 15:35:04;;;;;;;1.60;1.30;;;;;;;;;;5032955;28;20046;-74
2022/12/25 15:37:32;;;;;;;2.35;1.60;;;;;;;;;;5032358;28;20053;-72
2022/12/25 15:40:00;;;;;;;1.77;1.35;;;;;;;;;;5032472;28;20053;-73
2022/12/25 15:42:27;;;;;;;2.10;1.40;;;;;;;;;;5032595;28;20069;-72
2022/12/25 15:44:54;;;;;;;2.60;1.60;;;;;;;;;;5032585;28;20056;-72
2022/12/25 15:47:21;;;;;;;2.97;1.58;;;;;;;;;;5032568;28;20055;-72
2022/12/25 15:49:48;;;;;;;1.60;1.25;;;;;;;;;;5032629;28;20059;-72
2022/12/25 15:52:16;;;;;;;2.88;1.67;;;;;;;;;;5032077;28;20121;-72
2022/12/25 15:54:43;;;;;;;2.53;1.30;;;;;;;;;;5031968;28;20084;-72
2022/12/25 15:57:15;;;;;;;4.22;1.50;;;14.50;69.70;;;;;;5032422;28;20081;-72
2022/12/25 15:59:42;;;;;;;2.08;1.60;;;;;;;;;;5032374;28;20387;-72
2022/12/25 16:02:11;;;;;;;1.92;1.30;;;;;;;;;;5032013;28;20415;-72
2022/12/25 16:04:41;;;;;;;1.95;1.40;;;;;;;;;;5031956;28;20049;-72
2022/12/25 16:07:09;;;;;;;2.47;1.50;;;14.50;69.60;;;;;;5032042;28;20502;-72
2022/12/25 16:09:36;;;;;;;1.90;1.40;;;;;;;;;;5033213;28;20049;-72
2022/12/25 16:12:03;;;;;;;2.00;1.42;;;;;;;;;;5031598;28;20045;-72